Time;durP1;ratioP1;P1;durP2;ratioP2;P2;SDS_P1;SDS_P2;PMS_P1;PMS_P2;Temp;Humidity;BMP_temperature;BMP_pressure;BME280_temperature;BME280_humidity;BME280_pressure;Samples;Min_cycle;Max_cycle;Signal;HPM_P1;HPM_P2
2023/05/14 00:01:35;;;;;;;10.63;6.25;;;13.60;99.90;;;;;;5088488;28;20409;-73
2023/05/14 00:04:01;;;;;;;12.63;5.83;;;13.60;99.90;;;;;;5090745;28;20444;-74
2023/05/14 00:06:27;;;;;;;12.13;6.10;;;13.60;99.90;;;;;;5088267;28;20983;-73
2023/05/14 00:08:52;;;;;;;13.88;5.90;;;13.60;99.90;;;;;;5088741;28;20579;-73
2023/05/14 00:11:18;;;;;;;11.00;5.73;;;13.60;99.90;;;;;;5089122;28;20421;-73
2023/05/14 00:13:44;;;;;;;12.57;5.82;;;13.60;99.90;;;;;;5088697;28;20900;-73
2023/05/14 00:16:10;;;;;;;10.00;5.68;;;13.60;99.90;;;;;;5087845;28;20410;-73
2023/05/14 00:18:36;;;;;;;15.57;5.57;;;13.60;99.90;;;;;;5086786;28;21543;-74
2023/05/14 00:21:01;;;;;;;14.17;5.77;;;13.60;99.90;;;;;;5087764;28;20475;-73
2023/05/14 00:23:27;;;;;;;11.95;5.88;;;13.60;99.90;;;;;;5090054;28;20426;-73
2023/05/14 00:25:53;;;;;;;11.77;5.47;;;13.50;99.90;;;;;;5085690;28;20496;-74
2023/05/14 00:28:19;;;;;;;10.90;5.30;;;13.50;99.90;;;;;;5076994;28;20945;-74
2023/05/14 00:30:44;;;;;;;13.07;5.40;;;13.50;99.90;;;;;;5085244;28;20557;-73
2023/05/14 00:33:10;;;;;;;12.10;5.37;;;13.50;99.90;;;;;;5088966;28;20990;-73
2023/05/14 00:35:36;;;;;;;10.32;5.63;;;13.40;99.90;;;;;;5089325;28;20405;-74
2023/05/14 00:38:02;;;;;;;11.70;5.37;;;13.50;99.90;;;;;;5088241;28;20406;-74
2023/05/14 00:40:28;;;;;;;10.68;5.28;;;13.40;99.90;;;;;;5089330;28;20437;-74
2023/05/14 00:42:55;;;;;;;11.47;5.87;;;13.40;99.90;;;;;;5089290;28;20464;-74
2023/05/14 00:45:21;;;;;;;13.02;5.63;;;13.40;99.90;;;;;;5088189;28;20408;-73
2023/05/14 00:47:47;;;;;;;12.32;5.75;;;13.40;99.90;;;;;;5078607;28;20481;-73
2023/05/14 00:50:15;;;;;;;12.70;6.05;;;13.40;99.90;;;;;;5089312;28;20426;-74
2023/05/14 00:52:41;;;;;;;11.15;5.93;;;13.40;99.90;;;;;;5078828;28;20416;-74
2023/05/14 00:55:08;;;;;;;11.45;5.88;;;13.40;99.90;;;;;;5088148;28;20406;-74
2023/05/14 00:57:35;;;;;;;15.00;6.72;;;13.40;99.90;;;;;;5087677;28;20407;-73
2023/05/14 01:00:02;;;;;;;12.77;6.22;;;13.30;99.90;;;;;;5088730;28;20765;-74
2023/05/14 01:02:28;;;;;;;13.48;6.13;;;13.30;99.90;;;;;;5087982;28;21074;-74
2023/05/14 01:04:54;;;;;;;12.10;6.93;;;13.30;99.90;;;;;;5088256;28;20500;-74
2023/05/14 01:07:45;;;;;;;11.33;6.10;;;13.30;99.90;;;;;;5087150;28;20406;-74
2023/05/14 01:10:18;;;;;;;17.20;7.05;;;13.30;99.90;;;;;;5087519;28;20453;-74
2023/05/14 01:13:08;;;;;;;12.93;6.88;;;13.30;99.90;;;;;;5087878;28;20406;-73
2023/05/14 01:15:36;;;;;;;13.13;6.80;;;13.30;99.90;;;;;;5087418;28;20414;-73
2023/05/14 01:18:08;;;;;;;14.50;7.20;;;13.30;99.90;;;;;;5088756;28;20402;-73
2023/05/14 01:20:35;;;;;;;15.10;6.60;;;13.30;99.90;;;;;;5088559;28;20519;-73
2023/05/14 01:23:01;;;;;;;11.05;7.47;;;13.20;99.90;;;;;;5087693;28;20484;-74
2023/05/14 01:25:28;;;;;;;13.90;7.47;;;13.20;99.90;;;;;;5087839;28;20406;-74
2023/05/14 01:27:56;;;;;;;13.02;6.85;;;13.20;99.90;;;;;;5088698;28;20402;-74
2023/05/14 01:30:44;;;;;;;15.30;8.20;;;13.20;99.90;;;;;;5088219;28;20959;-73
2023/05/14 01:33:12;;;;;;;14.23;7.80;;;13.20;99.90;;;;;;5070330;28;20425;-74
2023/05/14 01:35:39;;;;;;;15.73;7.72;;;13.20;99.90;;;;;;5087470;28;20464;-74
2023/05/14 01:38:09;;;;;;;14.63;7.72;;;13.20;99.90;;;;;;5070224;28;20422;-74
2023/05/14 01:40:36;;;;;;;15.13;7.90;;;13.20;99.90;;;;;;5088035;28;20965;-74
2023/05/14 01:43:02;;;;;;;14.82;7.43;;;13.20;99.90;;;;;;5087681;28;20398;-74
2023/05/14 01:45:29;;;;;;;14.82;8.45;;;13.20;99.90;;;;;;5086723;28;20398;-74
2023/05/14 01:47:55;;;;;;;14.13;7.50;;;13.20;99.90;;;;;;5087246;28;20539;-73
2023/05/14 01:50:21;;;;;;;16.00;8.00;;;13.10;99.90;;;;;;5086193;28;20516;-74
2023/05/14 01:52:52;;;;;;;15.95;7.97;;;13.10;99.90;;;;;;5085960;28;20409;-74
2023/05/14 01:55:18;;;;;;;15.38;8.82;;;13.10;99.90;;;;;;5086250;28;20737;-73
2023/05/14 01:57:43;;;;;;;16.53;8.23;;;13.10;99.90;;;;;;5086536;28;20405;-73
2023/05/14 02:00:09;;;;;;;15.55;8.70;;;13.10;99.90;;;;;;5085711;28;20406;-74
2023/05/14 02:02:35;;;;;;;15.32;8.27;;;13.10;99.90;;;;;;5086054;28;20414;-74
2023/05/14 02:05:01;;;;;;;16.30;8.10;;;13.10;99.90;;;;;;5087216;28;20398;-73
2023/05/14 02:07:26;;;;;;;16.13;8.90;;;13.10;99.90;;;;;;5085798;28;20520;-74
2023/05/14 02:09:52;;;;;;;15.67;8.33;;;13.00;99.90;;;;;;5077994;28;20418;-74
2023/05/14 02:12:17;;;;;;;14.15;8.32;;;13.00;99.90;;;;;;5086439;28;20425;-74
2023/05/14 02:14:43;;;;;;;15.27;8.13;;;13.00;99.90;;;;;;5085857;28;20761;-73
2023/05/14 02:17:09;;;;;;;15.82;8.30;;;13.00;99.90;;;;;;5085498;28;20405;-74
2023/05/14 02:19:34;;;;;;;13.90;7.63;;;12.90;99.90;;;;;;5086774;28;20420;-74
2023/05/14 02:22:00;;;;;;;13.13;7.17;;;13.00;99.90;;;;;;5087565;28;20459;-74
2023/05/14 02:24:26;;;;;;;14.73;7.45;;;13.00;99.90;;;;;;5087521;28;20912;-74
2023/05/14 02:26:51;;;;;;;13.90;6.75;;;13.00;99.90;;;;;;5086664;28;20414;-74
2023/05/14 02:29:17;;;;;;;14.90;6.67;;;13.00;99.90;;;;;;5086228;28;20900;-74
2023/05/14 02:31:43;;;;;;;12.30;6.65;;;13.00;99.90;;;;;;5069945;28;20430;-74
2023/05/14 02:34:08;;;;;;;13.30;6.57;;;13.00;99.90;;;;;;5088029;28;20412;-74
2023/05/14 02:36:34;;;;;;;13.40;6.65;;;13.00;99.90;;;;;;5087104;28;20410;-74
2023/05/14 02:39:00;;;;;;;12.03;6.17;;;13.00;99.90;;;;;;5077547;28;20417;-74
2023/05/14 02:41:26;;;;;;;12.75;6.45;;;13.00;99.90;;;;;;5087723;28;20759;-74
2023/05/14 02:43:52;;;;;;;12.65;5.85;;;12.90;99.90;;;;;;5086491;28;20402;-74
2023/05/14 02:46:18;;;;;;;15.57;6.82;;;13.00;99.90;;;;;;5086061;28;20410;-74
2023/05/14 02:48:44;;;;;;;13.18;6.22;;;13.00;99.90;;;;;;5069256;28;20402;-74
2023/05/14 02:51:09;;;;;;;19.57;6.37;;;13.00;99.90;;;;;;5085998;28;20442;-73
2023/05/14 02:53:35;;;;;;;19.17;5.97;;;13.10;99.90;;;;;;5086693;28;20416;-73
2023/05/14 02:56:01;;;;;;;16.90;5.80;;;13.10;99.90;;;;;;5071525;28;20409;-74
2023/05/14 02:58:26;;;;;;;18.55;5.68;;;13.10;99.90;;;;;;5088963;28;20437;-74
2023/05/14 03:00:52;;;;;;;18.43;6.27;;;13.10;99.90;;;;;;5089875;28;20409;-74
2023/05/14 03:03:18;;;;;;;16.00;6.10;;;13.10;99.90;;;;;;5089400;28;20471;-74
2023/05/14 03:05:44;;;;;;;17.60;6.63;;;13.10;99.90;;;;;;5088941;28;20398;-74
2023/05/14 03:08:10;;;;;;;14.70;6.40;;;13.10;99.90;;;;;;5090268;28;20410;-74
2023/05/14 03:10:35;;;;;;;16.45;6.38;;;13.10;99.90;;;;;;5088942;28;20493;-74
2023/05/14 03:13:01;;;;;;;20.98;7.15;;;13.10;99.90;;;;;;5089132;28;20393;-74
2023/05/14 03:15:27;;;;;;;24.13;8.37;;;13.10;99.90;;;;;;5090347;28;20398;-74
2023/05/14 03:17:52;;;;;;;16.23;7.13;;;13.10;99.90;;;;;;5090601;28;20406;-74
2023/05/14 03:20:18;;;;;;;17.97;7.73;;;13.10;99.90;;;;;;5090988;28;20397;-73
2023/05/14 03:22:44;;;;;;;18.38;8.15;;;13.10;99.90;;;;;;5090898;28;20405;-73
2023/05/14 03:25:09;;;;;;;19.73;7.32;;;13.10;99.90;;;;;;5090702;28;20405;-73
2023/05/14 03:27:35;;;;;;;18.40;7.70;;;13.00;99.90;;;;;;5072774;28;20512;-74
2023/05/14 03:30:01;;;;;;;19.20;7.75;;;13.10;99.90;;;;;;5088697;28;20421;-74
2023/05/14 03:32:26;;;;;;;16.83;7.80;;;13.00;99.90;;;;;;5090751;28;20398;-74
2023/05/14 03:34:52;;;;;;;17.98;7.93;;;13.00;99.90;;;;;;5072408;28;20497;-74
2023/05/14 03:37:19;;;;;;;19.90;8.20;;;13.00;99.90;;;;;;5089346;28;20478;-74
2023/05/14 03:39:44;;;;;;;17.60;8.35;;;13.00;99.90;;;;;;5089242;28;20448;-74
2023/05/14 03:42:10;;;;;;;19.50;9.07;;;13.00;99.90;;;;;;5089082;28;20409;-74
2023/05/14 03:44:35;;;;;;;20.85;8.90;;;13.00;99.90;;;;;;5081746;28;20907;-74
2023/05/14 03:47:01;;;;;;;18.57;8.67;;;13.00;99.90;;;;;;5089228;28;20407;-74
2023/05/14 03:49:27;;;;;;;24.80;8.77;;;13.00;99.90;;;;;;5090427;28;20803;-74
2023/05/14 03:51:52;;;;;;;19.87;8.80;;;13.00;99.90;;;;;;5090301;28;20455;-74
2023/05/14 03:54:18;;;;;;;20.37;9.37;;;12.90;99.90;;;;;;5088440;28;20501;-74
2023/05/14 03:56:44;;;;;;;17.90;9.13;;;12.90;99.90;;;;;;5090320;28;20963;-74
2023/05/14 03:59:10;;;;;;;19.65;9.48;;;12.90;99.90;;;;;;5090151;28;20474;-74
2023/05/14 04:01:35;;;;;;;18.33;9.07;;;12.90;99.90;;;;;;5089519;28;20489;-74
2023/05/14 04:04:01;;;;;;;21.40;9.93;;;12.90;99.90;;;;;;5089131;28;21178;-74
2023/05/14 04:06:27;;;;;;;18.70;9.48;;;12.90;99.90;;;;;;5087845;28;20417;-74
2023/05/14 04:08:52;;;;;;;19.53;10.70;;;12.90;99.90;;;;;;5089932;28;20399;-74
2023/05/14 04:11:18;;;;;;;18.97;10.43;;;12.80;99.90;;;;;;5089889;28;20973;-74
2023/05/14 04:13:43;;;;;;;22.48;10.70;;;12.90;99.90;;;;;;5088443;28;20471;-73
2023/05/14 04:16:09;;;;;;;20.57;10.67;;;12.80;99.90;;;;;;5089934;28;21076;-74
2023/05/14 04:18:35;;;;;;;18.92;10.25;;;12.80;99.90;;;;;;5089574;28;20409;-74
2023/05/14 04:21:01;;;;;;;20.97;10.50;;;12.80;99.90;;;;;;5088224;28;20886;-74
2023/05/14 04:23:26;;;;;;;23.17;11.20;;;12.90;99.90;;;;;;5089578;28;20499;-74
2023/05/14 04:25:52;;;;;;;21.23;11.15;;;12.90;99.90;;;;;;5088529;28;20918;-74
2023/05/14 04:28:18;;;;;;;21.23;11.80;;;12.90;99.90;;;;;;5089930;28;20406;-74
2023/05/14 04:30:44;;;;;;;21.65;12.05;;;12.90;99.90;;;;;;5088363;28;20957;-74
2023/05/14 04:33:10;;;;;;;21.08;11.60;;;12.90;99.90;;;;;;5071489;28;20840;-74
2023/05/14 04:35:36;;;;;;;21.30;11.05;;;13.00;99.90;;;;;;5089383;28;20790;-74
2023/05/14 04:38:02;;;;;;;19.25;10.95;;;13.00;99.90;;;;;;5088481;28;20497;-74
2023/05/14 04:40:27;;;;;;;20.93;11.73;;;13.00;99.90;;;;;;5088274;28;21005;-74
2023/05/14 04:42:53;;;;;;;19.35;11.05;;;13.00;99.90;;;;;;5089205;28;20434;-74
2023/05/14 04:45:19;;;;;;;20.47;10.70;;;13.00;99.90;;;;;;5089389;28;20825;-74
2023/05/14 04:47:45;;;;;;;17.85;9.75;;;13.10;99.90;;;;;;5071237;28;20463;-74
2023/05/14 04:50:11;;;;;;;20.63;10.25;;;13.10;99.90;;;;;;5071392;28;20947;-74
2023/05/14 04:52:37;;;;;;;19.20;9.85;;;13.10;99.90;;;;;;5089093;28;20418;-74
2023/05/14 04:55:04;;;;;;;20.02;9.73;;;13.00;99.90;;;;;;5079650;28;20741;-73
2023/05/14 04:57:29;;;;;;;17.48;8.82;;;13.00;99.90;;;;;;5088006;28;20414;-74
2023/05/14 04:59:55;;;;;;;19.55;9.73;;;13.10;99.90;;;;;;5087837;28;20514;-74
2023/05/14 05:02:21;;;;;;;15.40;8.70;;;13.20;99.90;;;;;;5089330;28;20405;-74
2023/05/14 05:04:46;;;;;;;14.85;8.95;;;13.20;99.90;;;;;;5088963;28;20409;-74
2023/05/14 05:07:13;;;;;;;17.97;8.30;;;13.20;99.90;;;;;;5089221;28;20395;-74
2023/05/14 05:09:39;;;;;;;17.27;7.75;;;13.30;99.90;;;;;;5087384;28;20689;-74
2023/05/14 05:12:05;;;;;;;18.25;7.70;;;13.40;99.90;;;;;;5087625;28;20858;-74
2023/05/14 05:14:30;;;;;;;19.77;7.75;;;13.40;99.90;;;;;;5089171;28;20403;-74
2023/05/14 05:16:56;;;;;;;20.20;8.10;;;13.50;99.90;;;;;;5088138;28;20404;-74
2023/05/14 05:19:22;;;;;;;19.95;8.38;;;13.50;99.90;;;;;;5070499;28;20402;-74
2023/05/14 05:21:48;;;;;;;19.93;8.47;;;13.50;99.90;;;;;;5087464;28;20410;-74
2023/05/14 05:24:13;;;;;;;21.95;8.48;;;13.50;99.90;;;;;;5087190;28;20471;-74
2023/05/14 05:26:39;;;;;;;19.52;8.35;;;13.60;99.90;;;;;;5087559;28;20398;-74
2023/05/14 05:29:06;;;;;;;15.40;8.17;;;13.60;99.90;;;;;;5087041;28;20410;-74
2023/05/14 05:31:32;;;;;;;18.90;7.95;;;13.60;99.90;;;;;;5087520;28;20438;-74
2023/05/14 05:33:58;;;;;;;19.17;7.50;;;13.70;99.90;;;;;;5088678;28;20773;-74
2023/05/14 05:36:24;;;;;;;18.88;7.78;;;13.70;99.90;;;;;;5086707;28;20437;-74
2023/05/14 05:38:50;;;;;;;17.05;7.60;;;13.70;99.90;;;;;;5087153;28;20907;-74
2023/05/14 05:41:15;;;;;;;16.80;7.13;;;13.70;99.90;;;;;;5088415;28;20402;-74
2023/05/14 05:43:41;;;;;;;23.97;7.47;;;13.80;99.90;;;;;;5088691;28;20421;-74
2023/05/14 05:46:07;;;;;;;18.25;7.13;;;13.80;99.90;;;;;;5088014;28;20892;-74
2023/05/14 05:48:32;;;;;;;15.70;6.77;;;13.80;99.90;;;;;;5086621;28;20425;-74
2023/05/14 05:50:58;;;;;;;17.33;7.22;;;13.80;99.90;;;;;;5086804;28;20438;-74
2023/05/14 05:53:23;;;;;;;17.97;7.00;;;13.80;99.90;;;;;;5088335;28;20407;-74
2023/05/14 05:55:50;;;;;;;15.73;6.65;;;13.90;99.90;;;;;;5082354;28;20418;-74
2023/05/14 05:58:17;;;;;;;18.38;6.85;;;13.90;99.90;;;;;;5087990;28;20394;-74
2023/05/14 06:00:43;;;;;;;16.00;6.63;;;13.90;99.90;;;;;;5086711;28;20409;-74
2023/05/14 06:03:09;;;;;;;16.55;6.30;;;13.90;99.90;;;;;;5087245;28;20414;-74
2023/05/14 06:05:35;;;;;;;14.37;6.70;;;13.90;99.90;;;;;;5088195;28;20477;-74
2023/05/14 06:08:01;;;;;;;13.63;6.60;;;13.90;99.90;;;;;;5087926;28;20501;-74
2023/05/14 06:10:27;;;;;;;16.55;6.43;;;13.90;99.90;;;;;;5087909;28;20437;-74
2023/05/14 06:12:53;;;;;;;14.73;6.25;;;13.90;99.90;;;;;;5086383;28;20413;-74
2023/05/14 06:15:19;;;;;;;13.67;6.07;;;13.90;99.90;;;;;;5087937;28;20430;-74
2023/05/14 06:17:45;;;;;;;14.65;7.18;;;14.00;99.90;;;;;;5086892;28;20496;-74
2023/05/14 06:20:11;;;;;;;12.10;5.95;;;14.00;99.90;;;;;;5086146;28;20488;-74
2023/05/14 06:22:36;;;;;;;15.63;6.38;;;14.00;99.90;;;;;;5086511;28;20406;-74
2023/05/14 06:25:03;;;;;;;16.30;6.43;;;14.10;99.90;;;;;;5062730;28;20414;-74
2023/05/14 06:27:28;;;;;;;14.33;6.13;;;14.20;99.90;;;;;;5088310;28;20398;-74
2023/05/14 06:29:54;;;;;;;12.77;5.80;;;14.20;99.90;;;;;;5087455;28;20456;-74
2023/05/14 06:32:20;;;;;;;13.80;6.43;;;14.30;99.90;;;;;;5073662;28;20409;-74
2023/05/14 06:34:45;;;;;;;14.13;6.18;;;14.40;99.90;;;;;;5091882;28;20462;-74
2023/05/14 06:37:11;;;;;;;13.97;5.53;;;14.40;99.90;;;;;;5091074;28;20854;-74
2023/05/14 06:39:37;;;;;;;11.40;5.28;;;14.50;99.90;;;;;;5090556;28;20417;-74
2023/05/14 06:42:03;;;;;;;13.95;5.60;;;14.50;99.90;;;;;;5091816;28;20405;-74
2023/05/14 06:44:29;;;;;;;14.15;6.05;;;14.60;99.90;;;;;;5091216;28;20403;-74
2023/05/14 06:46:55;;;;;;;13.50;5.77;;;14.60;99.90;;;;;;5091934;28;20760;-74
2023/05/14 06:49:21;;;;;;;13.57;5.93;;;14.70;99.90;;;;;;5090486;28;21179;-74
2023/05/14 06:51:47;;;;;;;13.47;5.70;;;14.70;99.90;;;;;;5091478;28;20421;-74
2023/05/14 06:54:13;;;;;;;12.00;5.50;;;14.80;99.90;;;;;;5091502;28;20498;-74
2023/05/14 06:56:38;;;;;;;13.43;5.77;;;14.80;99.90;;;;;;5090141;28;20559;-74
2023/05/14 06:59:04;;;;;;;11.00;5.43;;;14.80;99.90;;;;;;5090243;28;21666;-74
2023/05/14 07:01:30;;;;;;;16.45;5.47;;;14.90;99.90;;;;;;5091141;28;20413;-74
2023/05/14 07:03:55;;;;;;;14.07;5.57;;;15.00;99.90;;;;;;5090799;28;20925;-74
2023/05/14 07:06:21;;;;;;;10.83;5.03;;;15.10;99.90;;;;;;5090918;28;20992;-74
2023/05/14 07:08:47;;;;;;;11.37;5.33;;;15.10;99.90;;;;;;5091268;28;20402;-74
2023/05/14 07:11:13;;;;;;;10.82;4.97;;;15.20;99.90;;;;;;5090908;28;20421;-74
2023/05/14 07:13:39;;;;;;;11.43;4.93;;;15.20;99.90;;;;;;5090537;28;20918;-74
2023/05/14 07:16:08;;;;;;;11.13;5.70;;;15.30;99.90;;;;;;5090926;28;20481;-74
2023/05/14 07:18:34;;;;;;;14.48;5.53;;;15.40;99.90;;;;;;5073095;28;20450;-74
2023/05/14 07:20:59;;;;;;;12.02;5.15;;;15.50;99.90;;;;;;5090809;28;20426;-74
2023/05/14 07:23:25;;;;;;;12.27;6.47;;;15.60;99.90;;;;;;5084470;28;20405;-74
2023/05/14 07:25:50;;;;;;;14.47;6.60;;;15.60;99.90;;;;;;5083095;28;20919;-74
2023/05/14 07:28:16;;;;;;;12.05;6.38;;;15.70;99.90;;;;;;5091008;28;20934;-74
2023/05/14 07:30:42;;;;;;;10.37;6.27;;;15.70;99.90;;;;;;5090976;28;20469;-74
2023/05/14 07:33:07;;;;;;;14.77;6.50;;;15.80;99.90;;;;;;5090885;28;20398;-74
2023/05/14 07:35:33;;;;;;;11.90;6.37;;;15.80;99.90;;;;;;5091074;28;20433;-74
2023/05/14 07:37:59;;;;;;;11.20;6.85;;;15.90;99.90;;;;;;5091028;28;20402;-74
2023/05/14 07:40:25;;;;;;;13.20;6.50;;;15.90;99.90;;;;;;5072224;28;21045;-74
2023/05/14 07:42:50;;;;;;;12.98;6.15;;;15.90;99.90;;;;;;5089000;28;20779;-74
2023/05/14 07:45:16;;;;;;;11.50;6.43;;;16.00;99.90;;;;;;5089551;28;20825;-74
2023/05/14 07:47:41;;;;;;;11.25;5.95;;;16.00;99.90;;;;;;5089972;28;20787;-74
2023/05/14 07:50:08;;;;;;;13.40;6.90;;;16.10;99.90;;;;;;5090202;28;20430;-74
2023/05/14 07:52:33;;;;;;;11.23;6.85;;;16.20;99.90;;;;;;5089225;28;20923;-74
2023/05/14 07:55:00;;;;;;;13.15;7.13;;;16.30;99.90;;;;;;5090345;28;20411;-74
2023/05/14 07:57:26;;;;;;;11.02;7.03;;;16.30;99.90;;;;;;5089747;28;20443;-74
2023/05/14 07:59:52;;;;;;;12.40;6.97;;;16.30;99.90;;;;;;5089648;28;20404;-74
2023/05/14 08:02:17;;;;;;;11.80;6.73;;;16.40;99.90;;;;;;5090085;28;20390;-74
2023/05/14 08:04:43;;;;;;;14.27;6.63;;;16.50;99.90;;;;;;5090168;28;20398;-74
2023/05/14 08:07:09;;;;;;;12.57;6.57;;;16.60;99.90;;;;;;5088346;28;20410;-74
2023/05/14 08:09:35;;;;;;;11.93;6.67;;;16.70;99.90;;;;;;5083309;28;20406;-74
2023/05/14 08:12:01;;;;;;;12.27;6.20;;;16.80;99.90;;;;;;5087524;28;20465;-74
2023/05/14 08:14:27;;;;;;;9.00;6.43;;;16.80;99.90;;;;;;5082461;28;20405;-75
2023/05/14 08:16:52;;;;;;;12.60;6.30;;;16.90;99.90;;;;;;5084736;28;20411;-74
2023/05/14 08:19:18;;;;;;;13.00;6.78;;;17.00;99.90;;;;;;5084424;28;20455;-74
2023/05/14 08:21:44;;;;;;;12.97;6.67;;;17.10;99.90;;;;;;5088304;28;20926;-74
2023/05/14 08:24:10;;;;;;;11.90;6.82;;;17.20;99.90;;;;;;5088279;28;20406;-75
2023/05/14 08:26:37;;;;;;;13.40;7.23;;;17.30;99.90;;;;;;5086414;28;20421;-74
2023/05/14 08:29:03;;;;;;;13.02;7.88;;;17.30;99.90;;;;;;5088184;28;20430;-75
2023/05/14 08:31:28;;;;;;;12.93;7.60;;;17.40;99.90;;;;;;5089683;28;20465;-72
2023/05/14 08:33:54;;;;;;;10.52;7.32;;;17.40;99.90;;;;;;5089644;28;20394;-72
2023/05/14 08:36:20;;;;;;;11.60;7.82;;;17.30;99.90;;;;;;5089634;28;20394;-73
2023/05/14 08:38:45;;;;;;;13.67;7.70;;;17.30;99.90;;;;;;5085855;28;20469;-73
2023/05/14 08:41:13;;;;;;;10.80;7.90;;;17.40;99.90;;;;;;5086246;28;20494;-73
2023/05/14 08:44:11;;;;;;;13.05;7.38;;;17.50;99.90;;;;;;5088839;28;20409;-73
2023/05/14 08:46:38;;;;;;;12.30;7.70;;;17.60;99.90;;;;;;5087210;28;20402;-73
2023/05/14 08:49:26;;;;;;;9.60;7.13;;;17.60;99.90;;;;;;5087886;28;20410;-73
2023/05/14 08:51:51;;;;;;;9.85;6.75;;;17.70;99.90;;;;;;5086148;28;20464;-73
2023/05/14 08:54:18;;;;;;;10.57;6.90;;;17.90;99.90;;;;;;5088033;28;20412;-73
2023/05/14 08:56:47;;;;;;;10.63;6.72;;;18.00;99.90;;;;;;5080291;28;20450;-73
2023/05/14 08:59:13;;;;;;;10.75;6.43;;;18.00;99.90;;;;;;5090280;28;20428;-73
2023/05/14 09:01:45;;;;;;;9.20;6.53;;;18.20;99.90;;;;;;5088851;28;20772;-74
2023/05/14 09:04:14;;;;;;;7.97;6.10;;;18.20;99.90;;;;;;5087620;28;20394;-74
2023/05/14 09:06:42;;;;;;;11.18;6.07;;;18.30;99.90;;;;;;5087873;28;20799;-74
2023/05/14 09:09:09;;;;;;;7.82;5.60;;;18.50;99.90;;;;;;5087995;28;20420;-74
2023/05/14 09:11:49;;;;;;;7.75;5.22;;;18.60;99.90;;;;;;5088357;28;20433;-73
2023/05/14 09:14:15;;;;;;;9.02;4.93;;;18.70;99.90;;;;;;5085136;28;20405;-74
2023/05/14 09:16:46;;;;;;;7.97;4.30;;;18.70;99.90;;;;;;5087872;28;20904;-74
2023/05/14 09:19:12;;;;;;;9.32;4.05;;;18.70;99.90;;;;;;5067968;28;20445;-74
2023/05/14 09:21:39;;;;;;;7.10;4.03;;;18.70;99.90;;;;;;5087426;28;20406;-74
2023/05/14 09:24:05;;;;;;;8.57;4.60;;;18.90;99.90;;;;;;5088344;28;20448;-74
2023/05/14 09:26:32;;;;;;;7.50;4.10;;;19.10;99.90;;;;;;5087488;28;20406;-74
2023/05/14 09:29:02;;;;;;;7.07;4.18;;;19.30;99.90;;;;;;5087276;28;20413;-74
2023/05/14 09:31:32;;;;;;;8.75;3.97;;;19.60;99.90;;;;;;5089521;28;20426;-74
2023/05/14 09:33:59;;;;;;;5.55;3.33;;;19.90;99.90;;;;;;5087465;28;20417;-74
2023/05/14 09:36:27;;;;;;;6.07;3.58;;;20.10;99.90;;;;;;5089512;28;20418;-74
2023/05/14 09:38:56;;;;;;;7.95;3.20;;;20.40;98.50;;;;;;5087321;28;20434;-74
2023/05/14 09:41:23;;;;;;;7.78;3.53;;;20.40;99.70;;;;;;5090279;28;20487;-74
2023/05/14 09:43:50;;;;;;;7.13;2.80;;;20.40;99.90;;;;;;5090351;28;20409;-74
2023/05/14 09:46:16;;;;;;;7.03;3.15;;;20.40;99.60;;;;;;5091839;28;20444;-74
2023/05/14 09:48:41;;;;;;;4.70;2.88;;;20.50;99.60;;;;;;5088345;28;20899;-74
2023/05/14 09:51:09;;;;;;;8.50;3.57;;;20.80;99.10;;;;;;5086565;28;20441;-74
2023/05/14 09:53:35;;;;;;;7.10;2.80;;;21.20;97.50;;;;;;5088437;28;20405;-74
2023/05/14 09:56:00;;;;;;;5.28;2.78;;;21.60;97.60;;;;;;5089391;28;20899;-74
2023/05/14 09:58:26;;;;;;;4.80;2.70;;;22.00;96.50;;;;;;5087492;28;21271;-74
2023/05/14 10:00:53;;;;;;;5.20;2.33;;;22.30;95.40;;;;;;5090179;28;20933;-74
2023/05/14 10:03:21;;;;;;;6.40;2.65;;;22.60;92.30;;;;;;5090520;28;20410;-74
2023/05/14 10:05:49;;;;;;;6.23;2.57;;;22.80;91.50;;;;;;5084557;28;20489;-74
2023/05/14 10:08:26;;;;;;;4.72;2.50;;;22.90;88.20;;;;;;5086194;28;20453;-74
2023/05/14 10:10:54;;;;;;;4.37;2.40;;;22.80;84.50;;;;;;5087037;28;20438;-73
2023/05/14 10:13:23;;;;;;;6.97;3.17;;;22.80;88.80;;;;;;5087612;28;20425;-72
2023/05/14 10:16:27;;;;;;;6.22;2.72;;;23.00;91.60;;;;;;5087326;28;20406;-72
2023/05/14 10:18:58;;;;;;;5.85;2.70;;;23.30;91.00;;;;;;5095027;28;21176;-74
2023/05/14 10:21:25;;;;;;;6.03;2.75;;;23.60;89.30;;;;;;5087782;28;20922;-74
2023/05/14 10:23:51;;;;;;;7.63;3.10;;;23.80;90.80;;;;;;5087973;28;20405;-74
2023/05/14 10:26:17;;;;;;;7.97;3.20;;;23.90;89.30;;;;;;5086845;28;20418;-74
2023/05/14 10:28:43;;;;;;;6.80;3.53;;;23.80;89.30;;;;;;5087851;28;20394;-74
2023/05/14 10:31:09;;;;;;;5.55;3.20;;;23.70;90.10;;;;;;5085718;28;20453;-74
2023/05/14 10:33:49;;;;;;;5.00;3.50;;;23.80;91.60;;;;;;5087741;28;20426;-74
2023/05/14 10:36:17;;;;;;;5.75;3.70;;;24.00;90.40;;;;;;5087683;28;20429;-74
2023/05/14 10:38:43;;;;;;;7.97;3.80;;;24.00;89.50;;;;;;5087427;28;20405;-74
2023/05/14 10:41:15;;;;;;;6.65;3.85;;;23.90;90.40;;;;;;5087441;28;20441;-74
2023/05/14 10:43:41;;;;;;;6.68;3.83;;;23.90;88.00;;;;;;5086756;28;20402;-74
2023/05/14 10:46:09;;;;;;;7.60;3.90;;;23.90;86.50;;;;;;5087267;28;20451;-74
2023/05/14 10:48:36;;;;;;;6.18;3.97;;;23.80;88.10;;;;;;5087230;28;20436;-74
2023/05/14 10:51:02;;;;;;;6.60;4.33;;;23.80;89.80;;;;;;5086806;28;20422;-74
2023/05/14 10:53:39;;;;;;;7.78;4.15;;;24.00;88.80;;;;;;5086935;28;20957;-74
2023/05/14 10:56:06;;;;;;;6.63;4.00;;;24.00;88.80;;;;;;5087147;28;20432;-74
2023/05/14 10:58:36;;;;;;;7.45;3.90;;;24.10;89.70;;;;;;5079147;28;20807;-74
2023/05/14 11:01:02;;;;;;;4.90;3.73;;;24.20;89.40;;;;;;5086635;28;20413;-74
2023/05/14 11:03:31;;;;;;;7.07;3.65;;;24.20;89.70;;;;;;5085819;28;20414;-74
2023/05/14 11:06:01;;;;;;;6.40;3.40;;;24.30;87.50;;;;;;5086590;28;20402;-74
2023/05/14 11:08:27;;;;;;;7.07;3.92;;;24.40;85.70;;;;;;5072480;28;20400;-74
2023/05/14 11:10:55;;;;;;;6.30;4.00;;;24.60;85.90;;;;;;5085504;28;21015;-74
2023/05/14 11:13:21;;;;;;;6.83;4.07;;;24.80;85.00;;;;;;5087342;28;20409;-74
2023/05/14 11:15:47;;;;;;;5.83;3.90;;;25.00;85.40;;;;;;5088144;28;20914;-74
2023/05/14 11:18:13;;;;;;;6.80;3.85;;;25.10;85.00;;;;;;5088963;28;20406;-74
2023/05/14 11:20:39;;;;;;;7.73;3.60;;;25.20;81.40;;;;;;5090467;28;20398;-75
2023/05/14 11:23:05;;;;;;;6.07;3.60;;;25.30;82.80;;;;;;5089352;28;20412;-74
2023/05/14 11:25:30;;;;;;;;;;;25.40;82.30;;;;;;5092298;28;20036;-75
2023/05/14 11:27:57;;;;;;;;;;;25.50;79.00;;;;;;5091354;28;19920;-75
2023/05/14 11:30:23;;;;;;;;;;;25.60;79.70;;;;;;5086839;28;19985;-75
2023/05/14 11:32:49;;;;;;;;;;;25.70;75.00;;;;;;5090813;28;19927;-74
2023/05/14 11:35:14;;;;;;;;;;;25.50;71.80;;;;;;5092865;28;19981;-75
2023/05/14 11:37:40;;;;;;;;;;;25.30;74.10;;;;;;5090903;28;19920;-74
2023/05/14 11:40:08;;;;;;;;;;;25.10;73.30;;;;;;5091940;28;19924;-74
2023/05/14 11:42:35;;;;;;;;;;;25.00;73.90;;;;;;5091775;28;19959;-74
2023/05/14 11:45:01;;;;;;;;;;;24.90;74.60;;;;;;5090659;28;19920;-74
2023/05/14 11:47:28;;;;;;;;;;;24.90;75.20;;;;;;5090726;28;19965;-74
2023/05/14 11:49:54;;;;;;;;;;;25.00;73.00;;;;;;5086591;28;20010;-74
2023/05/14 11:52:20;;;;;;;;;;;25.10;73.50;;;;;;5091822;28;20023;-74
2023/05/14 11:54:46;;;;;;;;;;;25.20;70.20;;;;;;5091526;28;20545;-74
2023/05/14 11:57:13;;;;;;;;;;;25.30;71.00;;;;;;5091732;28;19926;-74
2023/05/14 11:59:39;;;;;;;;;;;25.30;70.60;;;;;;5091527;28;19926;-74
2023/05/14 12:02:07;;;;;;;;;;;25.30;68.90;;;;;;5091537;28;20340;-74
2023/05/14 12:04:33;;;;;;;;;;;25.30;67.10;;;;;;5091612;28;19955;-74
2023/05/14 12:06:59;;;;;;;;;;;25.20;69.40;;;;;;5091309;28;19974;-74
2023/05/14 12:09:25;;;;;;;;;;;25.20;66.10;;;;;;5081296;28;19924;-74
2023/05/14 12:11:51;;;;;;;;;;;25.20;70.60;;;;;;5090968;28;19920;-74
2023/05/14 12:14:20;;;;;;;;;;;25.30;72.50;;;;;;5073757;28;19924;-74
2023/05/14 12:16:46;;;;;;;;;;;25.30;69.80;;;;;;5091224;28;19920;-74
2023/05/14 12:19:16;;;;;;;;;;;25.30;72.00;;;;;;5073357;28;19920;-74
2023/05/14 12:21:42;;;;;;;;;;;25.30;71.70;;;;;;5073452;28;20486;-75
2023/05/14 12:24:11;;;;;;;;;;;25.50;73.20;;;;;;5091254;28;19927;-74
2023/05/14 12:26:40;;;;;;;;;;;25.60;71.20;;;;;;5089500;28;20313;-74
2023/05/14 12:29:05;;;;;;;;;;;25.70;73.20;;;;;;5072679;28;19924;-74
2023/05/14 12:31:32;;;;;;;;;;;25.80;67.10;;;;;;5090406;28;19919;-75
2023/05/14 12:33:57;;;;;;;;;;;25.70;72.10;;;;;;5090657;28;19920;-74
2023/05/14 12:36:23;;;;;;;;;;;25.70;77.00;;;;;;5085001;28;19935;-74
2023/05/14 12:38:49;;;;;;;;;;;25.70;77.90;;;;;;5091506;28;19920;-75
2023/05/14 12:41:14;;;;;;;;;;;25.70;79.10;;;;;;5087604;28;19935;-74
2023/05/14 12:43:43;;;;;;;;;;;25.60;78.00;;;;;;5089332;28;19920;-74
2023/05/14 12:46:09;;;;;;;;;;;25.60;80.90;;;;;;5096748;28;20432;-74